createdAt,value
2018-12-24T00:01:54.012Z,6.67
2018-12-24T00:04:25.066Z,8.33
2018-12-24T00:06:56.227Z,9.68
2018-12-24T00:09:27.400Z,8.17
2018-12-24T00:12:06.814Z,6.63
2018-12-24T00:14:31.264Z,6.83
2018-12-24T00:17:02.673Z,7.42
2018-12-24T00:19:35.322Z,8.25
2018-12-24T00:22:08.047Z,7.83
2018-12-24T00:24:39.124Z,5.93
2018-12-24T00:27:10.226Z,7.30
2018-12-24T00:29:41.140Z,7.17
2018-12-24T00:32:12.276Z,7.40
2018-12-24T00:34:43.284Z,7.53
2018-12-24T00:37:14.127Z,7.13
2018-12-24T00:39:45.039Z,9.30
2018-12-24T00:42:16.469Z,8.37
2018-12-24T00:44:47.310Z,6.57
2018-12-24T00:49:55.189Z,9.93
2018-12-24T00:55:02.080Z,8.07
2018-12-24T00:57:33.027Z,9.17
2018-12-24T01:00:04.096Z,8.43
2018-12-24T01:02:35.210Z,6.20
2018-12-24T01:07:42.173Z,6.40
2018-12-24T01:10:13.309Z,6.70
2018-12-24T01:12:44.426Z,9.07
2018-12-24T01:15:15.298Z,7.43
2018-12-24T01:17:46.268Z,7.20
2018-12-24T01:20:17.138Z,7.00
2018-12-24T01:22:48.047Z,6.20
2018-12-24T01:25:19.307Z,7.47
2018-12-24T01:27:50.255Z,10.17
2018-12-24T01:30:21.401Z,7.77
2018-12-24T01:32:52.300Z,5.73
2018-12-24T01:35:23.205Z,6.63
2018-12-24T01:37:54.217Z,7.47
2018-12-24T01:40:25.094Z,7.43
2018-12-24T01:42:56.390Z,6.70
2018-12-24T01:45:27.312Z,5.70
2018-12-24T01:47:58.214Z,7.17
2018-12-24T01:50:29.323Z,5.53
2018-12-24T01:53:00.503Z,4.73
2018-12-24T01:58:08.102Z,5.03
2018-12-24T02:00:39.121Z,5.03
2018-12-24T02:03:10.095Z,5.70
2018-12-24T02:05:41.012Z,6.93
2018-12-24T02:10:48.108Z,5.63
2018-12-24T02:13:19.325Z,4.83
2018-12-24T02:15:50.386Z,4.73
2018-12-24T02:18:21.307Z,4.50
2018-12-24T02:20:52.348Z,7.40
2018-12-24T02:23:23.223Z,7.10
2018-12-24T02:25:54.104Z,5.53
2018-12-24T02:28:25.418Z,5.87
2018-12-24T02:31:34.911Z,5.63
2018-12-24T02:34:06.270Z,6.53
2018-12-24T02:36:37.256Z,5.87
2018-12-24T02:39:09.359Z,8.57
2018-12-24T02:41:40.202Z,11.83
2018-12-24T02:44:11.400Z,10.63
2018-12-24T02:46:42.292Z,12.60
2018-12-24T02:49:13.192Z,8.73
2018-12-24T02:51:44.190Z,12.60
2018-12-24T02:54:15.080Z,10.97
2018-12-24T02:56:46.077Z,10.53
2018-12-24T02:59:35.670Z,8.05
2018-12-24T03:02:07.097Z,10.65
2018-12-24T03:04:38.021Z,12.97
2018-12-24T03:07:09.081Z,11.80
2018-12-24T03:09:40.115Z,9.50
2018-12-24T03:12:11.060Z,7.40
2018-12-24T03:14:42.098Z,7.37
2018-12-24T03:17:13.330Z,8.00
2018-12-24T03:19:44.202Z,7.97
2018-12-24T03:22:15.524Z,6.47
2018-12-24T03:24:46.366Z,6.43
2018-12-24T03:27:17.391Z,8.23
2018-12-24T03:29:48.292Z,8.30
2018-12-24T03:32:19.161Z,7.50
2018-12-24T03:34:50.367Z,8.10
2018-12-24T03:37:21.359Z,7.77
2018-12-24T03:42:29.206Z,6.93
2018-12-24T03:45:00.296Z,6.97
2018-12-24T03:47:31.246Z,7.30
2018-12-24T03:50:02.152Z,6.60
2018-12-24T03:52:33.204Z,7.33
2018-12-24T03:55:04.065Z,9.40
2018-12-24T03:57:35.207Z,6.87
2018-12-24T04:00:06.428Z,7.73
2018-12-24T04:02:37.389Z,9.03
2018-12-24T04:05:08.349Z,8.57
2018-12-24T04:07:39.214Z,7.27
2018-12-24T04:10:10.492Z,8.63
2018-12-24T04:12:41.456Z,10.87
2018-12-24T04:15:12.412Z,8.20
2018-12-24T04:17:43.304Z,10.60
2018-12-24T04:20:14.284Z,9.83
2018-12-24T04:22:45.147Z,9.05
2018-12-24T04:27:52.500Z,9.53
2018-12-24T04:30:23.337Z,10.03
2018-12-24T04:32:54.281Z,10.63
2018-12-24T04:35:25.194Z,9.60
2018-12-24T04:40:32.678Z,10.23
2018-12-24T04:43:03.840Z,11.68
2018-12-24T04:45:35.087Z,12.87
2018-12-24T04:48:06.318Z,12.43
2018-12-24T04:50:37.340Z,13.40
2018-12-24T04:53:08.481Z,13.50
2018-12-24T04:55:39.470Z,13.87
2018-12-24T04:58:10.405Z,16.57
2018-12-24T05:00:41.821Z,13.93
2018-12-24T05:03:13.120Z,15.88
2018-12-24T05:05:44.017Z,15.13
2018-12-24T05:08:15.313Z,14.10
2018-12-24T05:10:46.361Z,14.23
2018-12-24T05:13:17.341Z,17.07
2018-12-24T05:15:48.606Z,13.53
2018-12-24T05:18:19.860Z,15.15
2018-12-24T05:20:51.077Z,18.00
2018-12-24T05:23:22.140Z,15.83
2018-12-24T05:25:53.008Z,14.00
2018-12-24T05:31:00.082Z,11.57
2018-12-24T05:33:31.040Z,11.63
2018-12-24T05:36:02.044Z,12.17
2018-12-24T05:38:33.031Z,12.57
2018-12-24T05:41:04.277Z,14.33
2018-12-24T05:43:35.616Z,14.10
2018-12-24T05:46:06.498Z,11.20
2018-12-24T05:48:37.459Z,12.30
2018-12-24T05:51:08.324Z,13.03
2018-12-24T05:53:39.433Z,13.60
2018-12-24T05:56:10.286Z,16.20
2018-12-24T05:58:41.290Z,14.27
2018-12-24T06:01:12.218Z,15.48
2018-12-24T06:04:01.789Z,15.48
2018-12-24T06:06:33.127Z,17.17
2018-12-24T06:09:04.705Z,15.57
2018-12-24T06:11:35.905Z,14.43
2018-12-24T06:14:07.089Z,16.77
2018-12-24T06:16:38.399Z,17.80
2018-12-24T06:19:09.320Z,18.53
2018-12-24T06:21:40.326Z,20.53
2018-12-24T06:24:11.192Z,20.90
2018-12-24T06:26:42.202Z,19.93
2018-12-24T06:29:31.739Z,22.80
2018-12-24T06:34:40.019Z,22.10
2018-12-24T06:37:12.606Z,25.62
2018-12-24T06:39:43.512Z,27.17
2018-12-24T06:42:14.419Z,26.73
2018-12-24T06:44:45.429Z,31.33
2018-12-24T06:47:16.289Z,41.03
2018-12-24T06:49:47.284Z,44.77
2018-12-24T06:52:18.297Z,34.03
2018-12-24T06:54:49.395Z,37.30
2018-12-24T06:57:21.429Z,33.80
2018-12-24T06:59:52.335Z,26.43
2018-12-24T07:02:23.316Z,22.67
2018-12-24T07:04:54.591Z,24.77
2018-12-24T07:07:25.569Z,26.17
2018-12-24T07:09:56.532Z,22.70
2018-12-24T07:12:27.476Z,18.80
2018-12-24T07:17:34.527Z,17.87
2018-12-24T07:20:24.093Z,19.00
2018-12-24T07:22:55.382Z,25.35
2018-12-24T07:25:26.384Z,20.27
2018-12-24T07:27:57.509Z,20.90
2018-12-24T07:30:28.403Z,17.20
2018-12-24T07:35:56.068Z,11.60
2018-12-24T07:38:27.139Z,8.93
2018-12-24T07:40:58.370Z,12.73
2018-12-24T07:43:30.063Z,11.03
2018-12-24T07:46:01.308Z,13.13
2018-12-24T07:48:32.361Z,11.23
2018-12-24T07:51:03.459Z,10.50
2018-12-24T07:53:35.366Z,15.13
2018-12-24T07:58:36.705Z,10.13
2018-12-24T08:01:09.095Z,8.33
2018-12-24T08:03:40.394Z,9.25
2018-12-24T08:06:11.307Z,9.43
2018-12-24T08:08:42.354Z,8.90
2018-12-24T08:11:13.308Z,9.63
2018-12-24T08:13:44.476Z,8.70
2018-12-24T08:16:15.503Z,8.27
2018-12-24T08:18:46.434Z,6.90
2018-12-24T08:21:17.300Z,7.70
2018-12-24T08:23:48.419Z,8.97
2018-12-24T08:26:19.667Z,10.70
2018-12-24T08:28:50.998Z,13.83
2018-12-24T08:31:22.095Z,10.00
2018-12-24T08:33:53.017Z,12.13
2018-12-24T08:36:24.272Z,9.13
2018-12-24T08:38:55.214Z,8.30
2018-12-24T08:41:26.285Z,7.83
2018-12-24T08:43:57.377Z,5.90
2018-12-24T08:46:28.451Z,6.57
2018-12-24T08:48:59.399Z,7.07
2018-12-24T08:51:30.348Z,6.20
2018-12-24T08:54:01.343Z,5.93
2018-12-24T08:56:32.277Z,7.60
2018-12-24T08:59:03.338Z,9.93
2018-12-24T09:01:34.305Z,8.97
2018-12-24T09:04:05.250Z,10.93
2018-12-24T09:06:36.436Z,8.77
2018-12-24T09:09:09.168Z,6.67
2018-12-24T09:11:40.556Z,6.90
2018-12-24T09:14:50.567Z,13.27
2018-12-24T09:20:02.395Z,18.17
2018-12-24T09:22:33.400Z,19.97
2018-12-24T09:25:04.828Z,26.70
2018-12-24T09:27:54.830Z,12.53
2018-12-24T09:30:26.485Z,7.00
2018-12-24T09:32:57.569Z,5.80
2018-12-24T09:35:28.616Z,7.27
2018-12-24T09:38:38.371Z,3.90
2018-12-24T09:41:28.254Z,3.70
2018-12-24T09:46:36.478Z,5.10
2018-12-24T09:54:20.594Z,8.10
2018-12-24T09:56:51.572Z,8.90
2018-12-24T09:59:22.617Z,9.20
2018-12-24T10:01:53.632Z,9.73
2018-12-24T10:04:33.253Z,3.87
2018-12-24T10:10:21.467Z,5.55
2018-12-24T10:18:50.988Z,4.17
2018-12-24T10:27:13.161Z,4.15
2018-12-24T10:29:44.464Z,3.57
2018-12-24T10:32:15.800Z,2.37
2018-12-24T10:37:40.289Z,3.57
2018-12-24T10:40:18.921Z,4.50
2018-12-24T10:42:51.070Z,3.20
2018-12-24T10:48:36.786Z,2.55
2018-12-24T10:51:08.006Z,6.67
2018-12-24T10:53:39.151Z,5.30
2018-12-24T10:56:10.186Z,5.30
2018-12-24T11:01:48.431Z,5.58
2018-12-24T11:04:19.407Z,4.80
2018-12-24T11:06:50.332Z,7.00
2018-12-24T11:09:21.258Z,10.70
2018-12-24T11:11:52.675Z,9.53
2018-12-24T11:14:43.376Z,7.92
2018-12-24T11:17:14.379Z,7.27
2018-12-24T11:19:45.677Z,7.27
2018-12-24T11:22:17.046Z,9.00
2018-12-24T11:24:48.170Z,9.38
2018-12-24T11:27:19.170Z,6.23
2018-12-24T11:29:50.237Z,5.23
2018-12-24T11:32:21.191Z,7.77
2018-12-24T11:34:52.606Z,5.90
2018-12-24T11:37:23.507Z,4.50
2018-12-24T11:42:31.318Z,5.97
2018-12-24T11:45:02.443Z,5.67
2018-12-24T11:47:33.370Z,6.00
2018-12-24T11:50:04.471Z,5.20
2018-12-24T11:52:35.488Z,5.77
2018-12-24T11:55:06.502Z,5.33
2018-12-24T12:00:36.277Z,5.73
2018-12-24T12:03:07.283Z,5.20
2018-12-24T12:05:38.290Z,7.17
2018-12-24T12:08:09.498Z,5.03
2018-12-24T12:10:40.475Z,4.53
2018-12-24T12:13:31.644Z,7.13
2018-12-24T12:16:03.133Z,3.55
2018-12-24T12:18:34.215Z,4.63
2018-12-24T12:21:05.613Z,3.57
2018-12-24T12:23:55.241Z,6.33
2018-12-24T12:26:26.326Z,4.43
2018-12-24T12:29:36.760Z,4.07
2018-12-24T12:32:09.105Z,4.33
2018-12-24T12:34:48.271Z,6.27
2018-12-24T12:37:19.249Z,4.87
2018-12-24T12:39:50.245Z,6.77
2018-12-24T12:42:21.356Z,5.83
2018-12-24T12:44:52.422Z,7.80
2018-12-24T12:47:23.390Z,4.67
2018-12-24T12:49:54.448Z,4.87
2018-12-24T12:52:25.336Z,6.73
2018-12-24T12:57:52.411Z,6.17
2018-12-24T13:00:23.649Z,5.80
2018-12-24T13:02:54.615Z,5.20
2018-12-24T13:05:25.763Z,5.80
2018-12-24T13:07:57.192Z,6.40
2018-12-24T13:10:28.763Z,47.93
2018-12-24T13:15:59.681Z,8.90
2018-12-24T13:18:31.962Z,6.77
2018-12-24T13:23:40.517Z,13.97
2018-12-24T13:26:12.051Z,8.87
2018-12-24T13:28:43.565Z,12.67
2018-12-24T13:31:14.746Z,8.97
2018-12-24T13:33:46.116Z,9.93
2018-12-24T13:36:16.970Z,17.90
2018-12-24T13:38:48.829Z,9.05
2018-12-24T13:41:20.148Z,11.03
2018-12-24T13:43:52.341Z,12.40
2018-12-24T13:46:23.846Z,11.77
2018-12-24T13:48:55.968Z,12.03
2018-12-24T13:51:27.317Z,6.37
2018-12-24T13:53:58.225Z,6.37
2018-12-24T13:56:29.250Z,6.97
2018-12-24T13:59:18.914Z,5.57
2018-12-24T14:01:50.090Z,8.37
2018-12-24T14:04:21.238Z,12.10
2018-12-24T14:06:52.228Z,12.77
2018-12-24T14:09:23.181Z,12.00
2018-12-24T14:11:54.552Z,6.17
2018-12-24T14:14:25.697Z,6.57
2018-12-24T14:16:56.594Z,5.05
2018-12-24T14:19:27.601Z,6.23
2018-12-24T14:21:58.857Z,7.62
2018-12-24T14:24:30.219Z,6.90
2018-12-24T14:27:01.166Z,5.57
2018-12-24T14:29:33.470Z,7.80
2018-12-24T14:32:04.549Z,5.07
2018-12-24T14:34:35.450Z,5.47
2018-12-24T14:37:06.554Z,8.93
2018-12-24T14:39:37.427Z,9.13
2018-12-24T14:42:08.307Z,10.10
2018-12-24T14:44:39.236Z,9.73
2018-12-24T14:47:10.249Z,11.20
2018-12-24T14:49:41.426Z,8.63
2018-12-24T14:52:12.319Z,13.33
2018-12-24T14:54:43.245Z,9.70
2018-12-24T14:57:14.430Z,11.10
2018-12-24T14:59:45.665Z,7.93
2018-12-24T15:02:17.617Z,7.67
2018-12-24T15:04:50.026Z,8.97
2018-12-24T15:07:21.310Z,9.50
2018-12-24T15:09:52.724Z,24.60
2018-12-24T15:15:39.871Z,10.73
2018-12-24T15:18:11.106Z,13.10
2018-12-24T15:20:42.057Z,15.67
2018-12-24T15:23:13.424Z,16.02
2018-12-24T15:25:44.303Z,14.83
2018-12-24T15:28:15.437Z,15.70
2018-12-24T15:30:46.333Z,13.20
2018-12-24T15:33:17.329Z,11.40
2018-12-24T15:35:48.298Z,10.23
2018-12-24T15:38:19.174Z,14.13
2018-12-24T15:40:50.255Z,13.43
2018-12-24T15:43:21.221Z,26.87
2018-12-24T15:45:52.411Z,36.90
2018-12-24T15:48:23.471Z,15.60
2018-12-24T15:50:54.453Z,9.60
2018-12-24T15:53:25.448Z,12.03
2018-12-24T15:55:56.406Z,8.37
2018-12-24T15:58:27.366Z,7.53
2018-12-24T16:00:58.675Z,10.03
2018-12-24T16:03:36.768Z,7.72
2018-12-24T16:06:03.080Z,9.63
2018-12-24T16:08:34.406Z,5.85
2018-12-24T16:11:05.287Z,7.63
2018-12-24T16:13:36.191Z,7.23
2018-12-24T16:16:07.127Z,7.50
2018-12-24T16:18:38.034Z,6.13
2018-12-24T16:21:09.385Z,6.00
2018-12-24T16:23:40.328Z,6.20
2018-12-24T16:26:11.632Z,5.23
2018-12-24T16:28:42.939Z,5.72
2018-12-24T16:31:14.097Z,6.13
2018-12-24T16:33:45.722Z,7.00
2018-12-24T16:36:16.881Z,5.53
2018-12-24T16:38:48.132Z,7.43
2018-12-24T16:41:19.140Z,8.03
2018-12-24T16:43:50.159Z,7.33
2018-12-24T16:46:21.548Z,5.67
2018-12-24T16:48:52.657Z,5.33
2018-12-24T16:51:24.970Z,6.53
2018-12-24T16:53:56.239Z,5.03
2018-12-24T16:56:27.159Z,8.78
2018-12-24T17:01:35.212Z,5.67
2018-12-24T17:07:02.392Z,4.93
2018-12-24T17:09:33.727Z,5.73
2018-12-24T17:12:04.720Z,6.87
2018-12-24T17:14:54.640Z,8.35
2018-12-24T17:17:25.899Z,5.55
2018-12-24T17:19:57.096Z,5.80
2018-12-24T17:23:08.083Z,8.17
2018-12-24T17:28:55.704Z,6.12
2018-12-24T17:31:26.946Z,5.37
2018-12-24T17:36:35.066Z,5.42
2018-12-24T17:39:08.151Z,7.57
2018-12-24T17:41:39.146Z,4.93
2018-12-24T17:44:10.378Z,8.50
2018-12-24T17:46:41.294Z,7.07
2018-12-24T17:49:12.468Z,6.27
2018-12-24T17:51:43.504Z,9.07
2018-12-24T17:54:14.442Z,6.33
2018-12-24T17:56:46.450Z,5.87
2018-12-24T17:59:17.403Z,5.60
2018-12-24T18:01:48.377Z,5.10
2018-12-24T18:04:19.422Z,6.17
2018-12-24T18:06:50.373Z,4.53
2018-12-24T18:09:21.444Z,3.77
2018-12-24T18:11:52.808Z,6.63
2018-12-24T18:14:24.451Z,4.47
2018-12-24T18:16:55.709Z,5.17
2018-12-24T18:19:26.894Z,6.15
2018-12-24T18:21:57.982Z,5.50
2018-12-24T18:25:07.633Z,3.40
2018-12-24T18:30:15.141Z,4.00
2018-12-24T18:35:23.109Z,4.97
2018-12-24T18:37:53.996Z,5.50
2018-12-24T18:40:25.281Z,5.72
2018-12-24T18:42:56.337Z,8.20
2018-12-24T18:45:27.341Z,5.27
2018-12-24T18:47:58.212Z,11.87
2018-12-24T18:50:29.403Z,38.93
2018-12-24T18:53:00.848Z,5.80
2018-12-24T18:55:32.081Z,7.17
2018-12-24T18:58:03.245Z,7.57
2018-12-24T19:00:34.137Z,3.87
2018-12-24T19:03:05.263Z,4.37
2018-12-24T19:05:36.464Z,7.77
2018-12-24T19:08:07.381Z,7.10
2018-12-24T19:10:38.443Z,4.40
2018-12-24T19:13:09.374Z,5.63
2018-12-24T19:15:40.315Z,5.67
2018-12-24T19:18:11.245Z,7.70
2018-12-24T19:20:42.294Z,6.10
2018-12-24T19:23:13.353Z,6.50
2018-12-24T19:25:44.340Z,10.33
2018-12-24T19:28:15.201Z,5.23
2018-12-24T19:30:46.748Z,5.63
2018-12-24T19:33:19.013Z,6.85
2018-12-24T19:35:50.479Z,7.20
2018-12-24T19:38:21.447Z,8.53
2018-12-24T19:40:52.337Z,6.97
2018-12-24T19:43:23.321Z,10.40
2018-12-24T19:45:54.769Z,10.07
2018-12-24T19:57:12.001Z,10.07
2018-12-24T19:59:44.602Z,8.30
2018-12-24T20:02:50.978Z,7.40
2018-12-24T20:04:52.443Z,10.17
2018-12-24T20:07:23.980Z,6.70
2018-12-24T20:09:56.132Z,7.17
2018-12-24T20:12:27.752Z,7.20
2018-12-24T20:20:40.187Z,5.20
2018-12-24T20:25:53.414Z,4.07
2018-12-24T20:28:26.885Z,5.77
2018-12-24T20:31:38.959Z,7.87
2018-12-24T20:34:10.285Z,6.20
2018-12-24T20:36:41.564Z,5.07
2018-12-24T20:39:12.726Z,5.10
2018-12-24T20:41:43.897Z,5.25
2018-12-24T20:47:13.290Z,5.27
2018-12-24T20:49:46.831Z,4.90
2018-12-24T20:52:19.063Z,7.33
2018-12-24T20:54:51.211Z,5.23
2018-12-24T20:57:23.904Z,6.27
2018-12-24T21:00:02.560Z,4.87
2018-12-24T21:02:35.088Z,4.33
2018-12-24T21:05:08.140Z,4.90
2018-12-24T21:07:40.045Z,8.10
2018-12-24T21:10:11.834Z,5.83
2018-12-24T21:23:33.393Z,6.83
2018-12-24T21:26:04.283Z,7.43
2018-12-24T21:28:35.451Z,7.57
2018-12-24T21:34:16.532Z,7.27
2018-12-24T21:36:47.694Z,10.70
2018-12-24T21:39:19.065Z,6.87
2018-12-24T21:42:09.327Z,6.03
2018-12-24T21:44:58.893Z,6.47
2018-12-24T21:47:30.480Z,7.22
2018-12-24T21:50:01.672Z,7.00
2018-12-24T21:55:25.803Z,6.43
2018-12-24T21:57:57.385Z,8.83
2018-12-24T22:00:28.796Z,7.73
2018-12-24T22:03:00.467Z,7.03
2018-12-24T22:05:31.648Z,9.73
2018-12-24T22:08:03.940Z,7.80
2018-12-24T22:16:24.331Z,6.83
2018-12-24T22:18:56.960Z,8.90
2018-12-24T22:21:30.359Z,7.30
2018-12-24T22:24:02.540Z,11.13
2018-12-24T22:26:34.796Z,7.57
2018-12-24T22:29:07.919Z,7.28
2018-12-24T22:31:40.923Z,9.17
2018-12-24T22:34:12.750Z,7.90
2018-12-24T22:36:45.637Z,9.20
2018-12-24T22:39:17.250Z,7.93
2018-12-24T22:41:49.641Z,9.60
2018-12-24T22:47:17.561Z,8.97
2018-12-24T22:50:04.898Z,7.53
2018-12-24T22:52:39.853Z,7.77
2018-12-24T22:55:11.123Z,9.23
2018-12-24T22:57:42.535Z,8.43
2018-12-24T23:03:09.353Z,7.67
2018-12-24T23:05:40.213Z,8.40
2018-12-24T23:08:11.590Z,8.23
2018-12-24T23:10:43.196Z,7.42
2018-12-24T23:13:14.773Z,9.73
2018-12-24T23:15:46.066Z,8.90
2018-12-24T23:18:17.285Z,5.80
2018-12-24T23:20:48.453Z,6.43
2018-12-24T23:23:19.457Z,7.47
2018-12-24T23:25:50.316Z,7.67
2018-12-24T23:28:21.292Z,7.37
2018-12-24T23:30:52.244Z,9.43
2018-12-24T23:33:23.163Z,6.70
2018-12-24T23:35:54.103Z,10.07
2018-12-24T23:38:25.019Z,8.73
2018-12-24T23:40:57.590Z,8.78
2018-12-24T23:43:28.446Z,7.47
2018-12-24T23:46:00.559Z,7.37
2018-12-24T23:48:31.522Z,7.23
2018-12-24T23:51:02.394Z,5.63
2018-12-24T23:56:09.333Z,6.80
2018-12-24T23:58:40.732Z,9.67
